Time;durP1;ratioP1;P1;durP2;ratioP2;P2;SDS_P1;SDS_P2;PMS_P1;PMS_P2;Temp;Humidity;BMP_temperature;BMP_pressure;BME280_temperature;BME280_humidity;BME280_pressure;Samples;Min_cycle;Max_cycle;Signal;HPM_P1;HPM_P2
2021/04/22 00:00:37;;;;;;;9.30;2.00;;;8.30;99.90;;;;;;4152537;28;20737;-68
2021/04/22 00:02:37;;;;;;;9.48;2.53;;;8.30;99.90;;;;;;4152272;28;20037;-68
2021/04/22 00:04:38;;;;;;;8.20;2.13;;;8.30;99.90;;;;;;4152204;28;20033;-68
2021/04/22 00:06:39;;;;;;;10.98;2.70;;;8.20;99.90;;;;;;4152046;28;20034;-67
2021/04/22 00:08:40;;;;;;;7.25;2.35;;;8.20;99.90;;;;;;4152284;28;21227;-67
2021/04/22 00:10:45;;;;;;;11.27;2.70;;;8.20;99.90;;;;;;4152418;28;20091;-67
2021/04/22 00:12:45;;;;;;;8.60;2.85;;;8.20;99.90;;;;;;4151292;28;20919;-67
2021/04/22 00:14:46;;;;;;;12.35;2.80;;;8.10;99.90;;;;;;4152278;28;20034;-68
2021/04/22 00:16:46;;;;;;;6.85;2.33;;;8.10;99.90;;;;;;4154166;28;20125;-67
2021/04/22 00:18:47;;;;;;;7.63;2.30;;;8.10;99.90;;;;;;4155486;28;20056;-67
2021/04/22 00:20:48;;;;;;;11.15;2.95;;;8.10;99.90;;;;;;4155427;28;20790;-67
2021/04/22 00:22:49;;;;;;;8.75;2.60;;;8.10;99.90;;;;;;4155630;28;20040;-68
2021/04/22 00:24:49;;;;;;;10.63;2.90;;;8.10;99.90;;;;;;4155724;28;20040;-67
2021/04/22 00:26:50;;;;;;;10.02;2.30;;;8.00;99.90;;;;;;4155286;28;20133;-68
2021/04/22 00:28:50;;;;;;;11.73;3.20;;;8.00;99.90;;;;;;4155327;28;20033;-68
2021/04/22 00:30:51;;;;;;;8.52;2.60;;;8.00;99.90;;;;;;4155805;28;20038;-67
2021/04/22 00:32:52;;;;;;;6.85;2.13;;;8.00;99.90;;;;;;4155248;28;20128;-67
2021/04/22 00:34:53;;;;;;;8.35;2.47;;;8.00;99.90;;;;;;4155523;28;20053;-68
2021/04/22 00:36:53;;;;;;;14.23;2.20;;;8.00;99.90;;;;;;4155212;28;20052;-68
2021/04/22 00:38:54;;;;;;;10.25;2.60;;;7.90;99.90;;;;;;4155133;28;20044;-68
2021/04/22 00:40:54;;;;;;;6.53;2.28;;;8.00;99.90;;;;;;4155880;28;20113;-68
2021/04/22 00:43:02;;;;;;;8.13;2.00;;;7.90;99.90;;;;;;4182232;28;20060;-68
2021/04/22 00:45:04;;;;;;;8.57;2.25;;;7.90;99.90;;;;;;4153141;28;20076;-68
2021/04/22 00:47:07;;;;;;;8.27;2.45;;;7.90;99.90;;;;;;4155546;28;20037;-67
2021/04/22 00:49:07;;;;;;;10.30;2.47;;;7.90;99.90;;;;;;4154625;28;20717;-68
2021/04/22 00:51:08;;;;;;;11.25;2.30;;;7.90;99.90;;;;;;4182085;28;20126;-67
2021/04/22 00:53:09;;;;;;;6.45;2.25;;;7.90;99.90;;;;;;4154891;28;20160;-67
2021/04/22 00:55:10;;;;;;;9.30;2.88;;;7.80;99.90;;;;;;4154531;28;20091;-67
2021/04/22 00:57:11;;;;;;;9.73;2.35;;;7.80;99.90;;;;;;4154937;28;21178;-67
2021/04/22 00:59:12;;;;;;;8.70;2.30;;;7.80;99.90;;;;;;4155418;28;20041;-67
2021/04/22 01:01:12;;;;;;;8.60;2.30;;;7.80;99.90;;;;;;4154902;28;20505;-67
2021/04/22 01:03:13;;;;;;;11.02;2.05;;;7.80;99.90;;;;;;4154748;28;20131;-67
2021/04/22 01:05:17;;;;;;;9.15;2.22;;;7.70;99.90;;;;;;4154369;28;20037;-68
2021/04/22 01:07:18;;;;;;;10.48;2.38;;;7.70;99.90;;;;;;4154866;28;20064;-68
2021/04/22 01:09:25;;;;;;;13.02;2.80;;;7.70;99.90;;;;;;4155057;28;20514;-67
2021/04/22 01:11:29;;;;;;;6.82;1.98;;;7.60;99.90;;;;;;4153120;28;20043;-68
2021/04/22 01:13:30;;;;;;;9.68;2.38;;;7.60;99.90;;;;;;4154536;28;20045;-68
2021/04/22 01:15:31;;;;;;;11.88;2.88;;;7.60;99.90;;;;;;4154995;28;20111;-67
2021/04/22 01:17:34;;;;;;;7.30;2.25;;;7.60;99.90;;;;;;4153792;28;20171;-68
2021/04/22 01:19:35;;;;;;;9.57;2.53;;;7.50;99.90;;;;;;4153180;28;20029;-68
2021/04/22 01:21:36;;;;;;;8.20;2.15;;;7.50;99.90;;;;;;4155075;28;20053;-67
2021/04/22 01:23:37;;;;;;;8.68;2.60;;;7.50;99.90;;;;;;4155436;28;20486;-67
2021/04/22 01:25:41;;;;;;;8.25;2.67;;;7.50;99.90;;;;;;4154485;28;20045;-67
2021/04/22 01:27:43;;;;;;;12.05;2.30;;;7.50;99.90;;;;;;4169180;28;20041;-68
2021/04/22 01:29:43;;;;;;;9.63;2.85;;;7.40;99.90;;;;;;4154112;28;20044;-67
2021/04/22 01:31:44;;;;;;;13.43;3.30;;;7.40;99.90;;;;;;4154383;28;20478;-67
2021/04/22 01:33:45;;;;;;;8.43;2.28;;;7.40;99.90;;;;;;4154063;28;20052;-68
2021/04/22 01:35:50;;;;;;;10.93;2.63;;;7.40;99.90;;;;;;4154368;28;20064;-68
2021/04/22 01:37:51;;;;;;;12.77;2.63;;;7.40;99.90;;;;;;4154205;28;20660;-68
2021/04/22 01:39:52;;;;;;;6.43;2.35;;;7.40;99.90;;;;;;4154051;28;20110;-68
2021/04/22 01:41:53;;;;;;;10.38;2.63;;;7.40;99.90;;;;;;4154632;28;20037;-68
2021/04/22 01:43:54;;;;;;;14.40;3.13;;;7.40;99.90;;;;;;4153689;28;20091;-68
2021/04/22 01:45:55;;;;;;;12.05;2.83;;;7.30;99.90;;;;;;4168464;28;20045;-68
2021/04/22 01:47:56;;;;;;;9.00;2.40;;;7.20;99.90;;;;;;4153988;28;20359;-67
2021/04/22 01:49:57;;;;;;;7.03;2.38;;;7.20;99.90;;;;;;4154176;28;20079;-68
2021/04/22 01:51:57;;;;;;;12.23;2.63;;;7.20;99.90;;;;;;4166599;28;20041;-68
2021/04/22 01:53:58;;;;;;;10.43;3.05;;;7.20;99.90;;;;;;4153270;28;20060;-68
2021/04/22 01:55:58;;;;;;;14.73;2.60;;;7.10;99.90;;;;;;4153747;28;20030;-68
2021/04/22 01:58:00;;;;;;;10.13;2.42;;;7.10;99.90;;;;;;4154168;28;20150;-67
2021/04/22 02:00:05;;;;;;;9.60;2.55;;;7.10;99.90;;;;;;4153678;28;20417;-68
2021/04/22 02:02:06;;;;;;;9.50;2.55;;;7.00;99.90;;;;;;4154178;28;20037;-67
2021/04/22 02:04:07;;;;;;;10.55;2.80;;;7.00;99.90;;;;;;4151595;28;20136;-68
2021/04/22 02:06:08;;;;;;;11.57;2.53;;;7.00;99.90;;;;;;4153926;28;20064;-68
2021/04/22 02:08:10;;;;;;;8.88;2.40;;;7.00;99.90;;;;;;4153784;28;20076;-68
2021/04/22 02:10:11;;;;;;;7.80;2.63;;;7.00;99.90;;;;;;4152795;28;20038;-68
2021/04/22 02:12:12;;;;;;;7.15;1.67;;;7.00;99.90;;;;;;4151626;28;20614;-68
2021/04/22 02:14:13;;;;;;;9.60;2.08;;;7.00;99.90;;;;;;4161426;28;20116;-67
2021/04/22 02:16:13;;;;;;;7.30;2.17;;;7.00;99.90;;;;;;4153846;28;20037;-68
2021/04/22 02:18:14;;;;;;;8.70;2.72;;;7.00;99.90;;;;;;4137520;28;20046;-68
2021/04/22 02:20:15;;;;;;;8.50;2.40;;;7.00;99.90;;;;;;4153233;28;20117;-68
2021/04/22 02:22:16;;;;;;;8.25;2.60;;;7.00;99.90;;;;;;4183060;28;20556;-68
2021/04/22 02:24:17;;;;;;;7.75;2.60;;;6.90;99.90;;;;;;4153663;28;20035;-68
2021/04/22 02:26:18;;;;;;;12.50;2.70;;;6.90;99.90;;;;;;4153222;28;20596;-67
2021/04/22 02:28:18;;;;;;;11.02;2.53;;;6.90;99.90;;;;;;4153394;28;20045;-68
2021/04/22 02:30:24;;;;;;;9.85;2.42;;;7.00;99.90;;;;;;4153090;28;20083;-68
2021/04/22 02:32:24;;;;;;;7.72;2.97;;;7.00;99.90;;;;;;4152899;28;20037;-68
2021/04/22 02:34:25;;;;;;;13.57;3.03;;;6.90;99.90;;;;;;4153398;28;20389;-68
2021/04/22 02:36:25;;;;;;;11.88;2.42;;;6.90;99.90;;;;;;4153246;28;20040;-68
2021/04/22 02:38:26;;;;;;;8.02;2.80;;;6.90;99.90;;;;;;4152004;28;20033;-69
2021/04/22 02:40:29;;;;;;;14.27;2.70;;;6.90;99.90;;;;;;4152771;28;20041;-68
2021/04/22 02:42:30;;;;;;;17.08;3.28;;;6.80;99.90;;;;;;4152943;28;20029;-68
2021/04/22 02:44:30;;;;;;;7.68;2.58;;;6.80;99.90;;;;;;4159141;28;20021;-68
2021/04/22 02:46:31;;;;;;;11.13;3.22;;;6.80;99.90;;;;;;4153121;28;20037;-68
2021/04/22 02:48:32;;;;;;;15.50;3.33;;;6.70;99.90;;;;;;4152955;28;20068;-68
2021/04/22 02:50:34;;;;;;;13.45;2.80;;;6.70;99.90;;;;;;4153014;28;20415;-68
2021/04/22 02:52:35;;;;;;;9.73;3.10;;;6.70;99.90;;;;;;4152711;28;20037;-68
2021/04/22 02:54:36;;;;;;;16.83;3.50;;;6.70;99.90;;;;;;4152248;28;20037;-68
2021/04/22 02:56:36;;;;;;;10.93;3.35;;;6.60;99.90;;;;;;4153133;28;20028;-68
2021/04/22 02:58:37;;;;;;;12.93;3.10;;;6.60;99.90;;;;;;4152948;28;20156;-68
2021/04/22 03:00:39;;;;;;;13.68;3.67;;;6.60;99.90;;;;;;4167003;28;20045;-68
2021/04/22 03:02:39;;;;;;;11.00;3.13;;;6.50;99.90;;;;;;4153646;28;20046;-68
2021/04/22 03:04:40;;;;;;;12.18;3.10;;;6.50;99.90;;;;;;4179788;28;20273;-68
2021/04/22 03:06:41;;;;;;;12.07;3.08;;;6.50;99.90;;;;;;4152259;28;20057;-68
2021/04/22 03:08:41;;;;;;;9.65;2.55;;;6.50;99.90;;;;;;4151511;28;20037;-68
2021/04/22 03:10:43;;;;;;;13.57;3.00;;;6.50;99.90;;;;;;4152434;28;20132;-68
2021/04/22 03:12:44;;;;;;;11.70;2.47;;;6.50;99.90;;;;;;4177937;28;20063;-68
2021/04/22 03:14:44;;;;;;;9.20;2.80;;;6.50;99.90;;;;;;4152249;28;20034;-68
2021/04/22 03:16:45;;;;;;;14.82;3.45;;;6.40;99.90;;;;;;4152787;28;20350;-68
2021/04/22 03:18:46;;;;;;;10.10;2.58;;;6.40;99.90;;;;;;4152362;28;20051;-68
2021/04/22 03:20:46;;;;;;;10.88;2.90;;;6.40;99.90;;;;;;4153015;28;20041;-68
2021/04/22 03:22:47;;;;;;;12.07;3.08;;;6.40;99.90;;;;;;4152248;28;20049;-68
2021/04/22 03:24:48;;;;;;;8.70;2.50;;;6.30;99.90;;;;;;4152663;28;20080;-68
2021/04/22 03:26:49;;;;;;;14.10;3.55;;;6.30;99.90;;;;;;4152889;28;20505;-68
2021/04/22 03:28:50;;;;;;;13.07;2.85;;;6.30;99.90;;;;;;4152741;28;20060;-68
2021/04/22 03:30:50;;;;;;;12.38;2.47;;;6.30;99.90;;;;;;4152400;28;20041;-68
2021/04/22 03:32:51;;;;;;;12.02;2.70;;;6.30;99.90;;;;;;4153099;28;20052;-68
2021/04/22 03:34:52;;;;;;;10.88;2.75;;;6.30;99.90;;;;;;4152114;28;20045;-68
2021/04/22 03:36:53;;;;;;;12.93;2.70;;;6.20;99.90;;;;;;4150951;28;20083;-68
2021/04/22 03:38:54;;;;;;;9.40;2.28;;;6.20;99.90;;;;;;4152664;28;20041;-68
2021/04/22 03:40:55;;;;;;;10.43;2.50;;;6.20;99.90;;;;;;4180125;28;20037;-68
2021/04/22 03:42:56;;;;;;;10.95;2.78;;;6.20;99.90;;;;;;4150886;28;20065;-68
2021/04/22 03:44:56;;;;;;;10.10;3.08;;;6.20;99.90;;;;;;4151827;28;20044;-68
2021/04/22 03:46:57;;;;;;;15.02;3.10;;;6.10;99.90;;;;;;4152543;28;20037;-68
2021/04/22 03:48:58;;;;;;;8.82;2.85;;;6.20;99.90;;;;;;4153750;28;20049;-68
2021/04/22 03:50:58;;;;;;;9.93;2.55;;;6.10;99.90;;;;;;4151600;28;20111;-68
2021/04/22 03:52:59;;;;;;;13.68;2.90;;;6.10;99.90;;;;;;4151836;28;20030;-68
2021/04/22 03:55:00;;;;;;;10.50;2.85;;;6.20;99.90;;;;;;4152322;28;20064;-68
2021/04/22 03:57:02;;;;;;;7.07;2.30;;;6.20;99.90;;;;;;4152504;28;20551;-68
2021/04/22 03:59:03;;;;;;;12.27;2.80;;;6.20;99.90;;;;;;4178798;28;20037;-68
2021/04/22 04:01:04;;;;;;;10.20;2.80;;;6.20;99.90;;;;;;4151526;28;20112;-68
2021/04/22 04:03:05;;;;;;;6.55;2.72;;;6.20;99.90;;;;;;4151845;28;20030;-68
2021/04/22 04:05:08;;;;;;;12.10;3.38;;;6.20;99.90;;;;;;4152263;28;20527;-68
2021/04/22 04:07:09;;;;;;;15.63;3.70;;;6.20;99.90;;;;;;4166818;28;20040;-68
2021/04/22 04:09:10;;;;;;;16.45;4.47;;;6.20;99.90;;;;;;4152879;28;20046;-67
2021/04/22 04:11:10;;;;;;;10.95;3.55;;;6.20;99.90;;;;;;4152756;28;20500;-68
2021/04/22 04:13:11;;;;;;;19.10;3.95;;;6.10;99.90;;;;;;4152716;28;20044;-68
2021/04/22 04:15:13;;;;;;;12.65;3.60;;;6.10;99.90;;;;;;4151749;28;20099;-68
2021/04/22 04:17:13;;;;;;;16.33;3.97;;;6.00;99.90;;;;;;4152837;28;20045;-68
2021/04/22 04:19:14;;;;;;;16.08;3.50;;;6.00;99.90;;;;;;4152734;28;20049;-68
2021/04/22 04:21:14;;;;;;;15.88;3.88;;;6.00;99.90;;;;;;4151846;28;20936;-68
2021/04/22 04:23:15;;;;;;;13.25;3.38;;;6.00;99.90;;;;;;4152111;28;20041;-67
2021/04/22 04:25:15;;;;;;;13.25;3.45;;;6.00;99.90;;;;;;4152151;28;20218;-68
2021/04/22 04:27:16;;;;;;;11.02;3.10;;;5.90;99.90;;;;;;4152073;28;20049;-68
2021/04/22 04:29:17;;;;;;;11.80;3.15;;;5.90;99.90;;;;;;4152739;28;20046;-68
2021/04/22 04:31:18;;;;;;;15.32;3.55;;;5.90;99.90;;;;;;4152014;28;20038;-68
2021/04/22 04:33:18;;;;;;;10.27;3.47;;;5.90;99.90;;;;;;4152649;28;20123;-68
2021/04/22 04:35:20;;;;;;;6.47;2.60;;;5.90;99.90;;;;;;4152854;28;20037;-68
2021/04/22 04:37:20;;;;;;;10.75;3.53;;;5.90;99.90;;;;;;4149628;28;20038;-68
2021/04/22 04:39:21;;;;;;;8.32;2.97;;;5.90;99.90;;;;;;4152589;28;20046;-68
2021/04/22 04:41:22;;;;;;;11.35;3.28;;;5.80;99.90;;;;;;4166853;28;20420;-68
2021/04/22 04:43:22;;;;;;;8.68;2.83;;;5.90;99.90;;;;;;4150554;28;20033;-68
2021/04/22 04:45:23;;;;;;;11.25;3.63;;;5.90;99.90;;;;;;4152032;28;20489;-68
2021/04/22 04:47:24;;;;;;;8.00;3.20;;;5.90;99.90;;;;;;4167257;28;20056;-68
2021/04/22 04:49:24;;;;;;;9.25;3.08;;;5.90;99.90;;;;;;4152435;28;20788;-68
2021/04/22 04:51:25;;;;;;;11.05;3.40;;;5.90;99.90;;;;;;4152060;28;20034;-68
2021/04/22 04:53:26;;;;;;;10.55;3.33;;;6.00;99.90;;;;;;4151524;28;20041;-68
2021/04/22 04:55:26;;;;;;;9.73;3.50;;;6.00;99.90;;;;;;4152139;28;20026;-68
2021/04/22 04:57:28;;;;;;;10.00;3.63;;;6.00;99.90;;;;;;4151807;28;20164;-68
2021/04/22 04:59:28;;;;;;;10.95;4.28;;;6.00;99.90;;;;;;4151728;28;20563;-68
2021/04/22 05:01:29;;;;;;;8.27;3.67;;;5.90;99.90;;;;;;4151388;28;20091;-68
2021/04/22 05:03:30;;;;;;;10.93;3.05;;;5.90;99.90;;;;;;4154451;28;20022;-68
2021/04/22 05:05:31;;;;;;;11.93;3.00;;;5.90;99.90;;;;;;4155420;28;20110;-69
2021/04/22 05:07:31;;;;;;;12.55;3.88;;;5.90;99.90;;;;;;4155418;28;20049;-68
2021/04/22 05:09:32;;;;;;;15.38;4.15;;;6.00;99.90;;;;;;4154391;28;20038;-68
2021/04/22 05:11:33;;;;;;;9.45;3.42;;;6.00;99.90;;;;;;4155312;28;20151;-68
2021/04/22 05:13:33;;;;;;;12.38;4.03;;;6.00;99.90;;;;;;4153039;28;20497;-68
2021/04/22 05:15:34;;;;;;;9.70;3.30;;;6.00;99.90;;;;;;4154554;28;20029;-67
2021/04/22 05:17:34;;;;;;;8.57;2.90;;;6.00;99.90;;;;;;4154605;28;20113;-68
2021/04/22 05:19:35;;;;;;;9.00;3.20;;;6.10;99.90;;;;;;4154452;28;20925;-69
2021/04/22 05:21:36;;;;;;;13.43;3.20;;;6.10;99.90;;;;;;4154752;28;20038;-67
2021/04/22 05:23:37;;;;;;;10.52;3.47;;;6.10;99.90;;;;;;4146437;28;20045;-67
2021/04/22 05:25:37;;;;;;;11.45;3.45;;;6.20;99.90;;;;;;4155313;28;20091;-67
2021/04/22 05:27:38;;;;;;;13.27;3.63;;;6.20;99.90;;;;;;4155742;28;21134;-67
2021/04/22 05:29:38;;;;;;;11.55;3.13;;;6.20;99.90;;;;;;4154658;28;20362;-68
2021/04/22 05:31:39;;;;;;;11.68;3.80;;;6.20;99.90;;;;;;4153221;28;20029;-68
2021/04/22 05:33:40;;;;;;;9.50;3.17;;;6.20;99.90;;;;;;4153027;28;20219;-67
2021/04/22 05:35:42;;;;;;;11.45;4.18;;;6.30;99.90;;;;;;4133266;28;20050;-68
2021/04/22 05:37:43;;;;;;;12.98;4.18;;;6.30;99.90;;;;;;4151089;28;20064;-68
2021/04/22 05:39:44;;;;;;;14.93;4.75;;;6.30;99.90;;;;;;4154672;28;20045;-68
2021/04/22 05:41:45;;;;;;;20.67;5.22;;;6.40;99.90;;;;;;4153181;28;20060;-68
2021/04/22 05:43:45;;;;;;;18.92;4.68;;;6.40;99.90;;;;;;4153369;28;20048;-68
2021/04/22 05:45:46;;;;;;;13.40;3.47;;;6.40;99.90;;;;;;4152928;28;20496;-68
2021/04/22 05:47:47;;;;;;;13.63;3.97;;;6.40;99.90;;;;;;4152330;28;20037;-68
2021/04/22 05:49:48;;;;;;;10.88;3.80;;;6.50;99.90;;;;;;4155397;28;20156;-68
2021/04/22 05:51:49;;;;;;;14.63;3.95;;;6.50;99.90;;;;;;4153159;28;20580;-68
2021/04/22 05:53:50;;;;;;;14.45;4.32;;;6.50;99.90;;;;;;4152506;28;20041;-68
2021/04/22 05:55:50;;;;;;;9.93;3.92;;;6.50;99.90;;;;;;4154569;28;20125;-68
2021/04/22 05:57:54;;;;;;;10.95;3.90;;;6.60;99.90;;;;;;4153731;28;20037;-68
2021/04/22 05:59:55;;;;;;;11.90;4.50;;;6.60;99.90;;;;;;4181559;28;20056;-67
2021/04/22 06:01:55;;;;;;;15.27;4.22;;;6.60;99.90;;;;;;4153289;28;20042;-68
2021/04/22 06:03:56;;;;;;;10.18;3.83;;;6.70;99.90;;;;;;4154664;28;20114;-68
2021/04/22 06:05:57;;;;;;;19.20;4.90;;;6.70;99.90;;;;;;4168952;28;20044;-68
2021/04/22 06:07:58;;;;;;;15.55;4.53;;;6.70;99.90;;;;;;4154314;28;20128;-68
2021/04/22 06:09:59;;;;;;;13.15;4.10;;;6.70;99.90;;;;;;4153435;28;20064;-68
2021/04/22 06:12:01;;;;;;;14.68;4.45;;;6.80;99.90;;;;;;4152892;28;20041;-68
2021/04/22 06:14:01;;;;;;;17.00;4.03;;;6.80;99.90;;;;;;4152227;28;20041;-68
2021/04/22 06:16:02;;;;;;;14.48;4.15;;;6.80;99.90;;;;;;4152835;28;20112;-69
2021/04/22 06:18:03;;;;;;;13.70;4.85;;;6.90;99.90;;;;;;4153162;28;20718;-69
2021/04/22 06:20:10;;;;;;;17.00;4.75;;;6.90;99.90;;;;;;4150640;28;20041;-68
2021/04/22 06:22:10;;;;;;;15.38;4.70;;;6.90;99.90;;;;;;4147066;28;20448;-69
2021/04/22 06:24:11;;;;;;;12.45;4.13;;;7.00;99.90;;;;;;4179190;28;20032;-69
2021/04/22 06:26:12;;;;;;;10.93;4.10;;;7.00;99.90;;;;;;4164672;28;21098;-69
2021/04/22 06:28:12;;;;;;;12.90;4.50;;;7.10;99.90;;;;;;4149898;28;20037;-68
2021/04/22 06:30:15;;;;;;;31.27;5.20;;;7.10;99.90;;;;;;4146057;28;20044;-69
2021/04/22 06:32:15;;;;;;;12.02;4.22;;;7.20;99.90;;;;;;4148332;28;20040;-69
2021/04/22 06:34:16;;;;;;;11.13;4.15;;;7.20;99.90;;;;;;4150024;28;20482;-69
2021/04/22 06:36:19;;;;;;;15.60;4.53;;;7.20;99.90;;;;;;4149484;28;20372;-69
2021/04/22 06:38:19;;;;;;;;;;;7.20;99.90;;;;;;4163229;28;20926;-69
2021/04/22 06:40:22;;;;;;;17.95;4.78;;;7.30;99.90;;;;;;4149912;28;20071;-69
2021/04/22 06:42:22;;;;;;;14.43;4.03;;;7.40;99.90;;;;;;4150430;28;20115;-69
2021/04/22 06:44:23;;;;;;;12.02;3.97;;;7.40;99.90;;;;;;4148690;28;20029;-69
2021/04/22 06:46:24;;;;;;;19.27;4.28;;;7.50;99.90;;;;;;4150922;28;20041;-69
2021/04/22 06:48:24;;;;;;;15.38;3.72;;;7.50;99.90;;;;;;4152673;28;20041;-69
2021/04/22 06:50:25;;;;;;;18.45;4.28;;;7.60;99.90;;;;;;4152951;28;20040;-70
2021/04/22 06:52:26;;;;;;;15.55;4.30;;;7.60;99.90;;;;;;4151230;28;20092;-69
2021/04/22 06:54:27;;;;;;;12.25;3.83;;;7.70;99.90;;;;;;4150780;28;20037;-69
2021/04/22 06:56:27;;;;;;;11.43;3.80;;;7.70;99.90;;;;;;4163596;28;20947;-71
2021/04/22 06:58:28;;;;;;;10.38;3.30;;;7.80;99.90;;;;;;4151563;28;20107;-70
2021/04/22 07:00:32;;;;;;;10.95;3.42;;;7.80;99.90;;;;;;4151720;28;20041;-70
2021/04/22 07:02:33;;;;;;;11.05;3.47;;;7.80;99.90;;;;;;4165787;28;20558;-70
2021/04/22 07:04:33;;;;;;;14.25;3.50;;;7.90;99.90;;;;;;4152368;28;20030;-70
2021/04/22 07:06:34;;;;;;;16.20;4.40;;;8.00;99.90;;;;;;4178120;28;20035;-70
2021/04/22 07:08:35;;;;;;;16.77;4.50;;;8.00;99.90;;;;;;4151735;28;20120;-70
2021/04/22 07:10:37;;;;;;;15.18;4.18;;;8.00;99.90;;;;;;4149595;28;20033;-69
2021/04/22 07:12:37;;;;;;;13.88;3.90;;;8.10;99.90;;;;;;4150266;28;20493;-70
2021/04/22 07:14:38;;;;;;;16.05;4.00;;;8.10;99.90;;;;;;4163184;28;20045;-70
2021/04/22 07:16:38;;;;;;;15.13;4.72;;;8.20;99.90;;;;;;4149283;28;20064;-69
2021/04/22 07:18:39;;;;;;;23.42;4.10;;;8.20;99.90;;;;;;4149325;28;20045;-70
2021/04/22 07:20:40;;;;;;;12.13;3.15;;;8.30;99.90;;;;;;4149342;28;20033;-70
2021/04/22 07:22:40;;;;;;;8.70;3.25;;;8.40;99.90;;;;;;4149961;28;20040;-70
2021/04/22 07:24:41;;;;;;;9.50;2.95;;;8.50;99.90;;;;;;4144092;28;20034;-70
2021/04/22 07:26:42;;;;;;;12.13;3.33;;;8.50;99.90;;;;;;4154816;28;20041;-70
2021/04/22 07:28:42;;;;;;;19.33;3.08;;;8.60;99.90;;;;;;4182182;28;20417;-70
2021/04/22 07:30:43;;;;;;;6.93;2.33;;;8.60;99.90;;;;;;4152833;28;20064;-70
2021/04/22 07:32:45;;;;;;;9.35;2.78;;;8.70;99.90;;;;;;4154608;28;20441;-70
2021/04/22 07:34:47;;;;;;;7.07;2.33;;;8.80;99.90;;;;;;4154967;28;20106;-69
2021/04/22 07:36:48;;;;;;;9.32;2.28;;;8.80;99.90;;;;;;4153527;28;20117;-70
2021/04/22 07:38:49;;;;;;;11.07;2.63;;;8.90;99.90;;;;;;4152963;28;20049;-70
2021/04/22 07:40:50;;;;;;;12.55;2.72;;;9.00;99.90;;;;;;4154246;28;20153;-70
2021/04/22 07:42:52;;;;;;;10.00;2.38;;;9.10;99.90;;;;;;4151760;28;20053;-70
2021/04/22 07:44:52;;;;;;;14.95;2.90;;;9.10;99.90;;;;;;4152626;28;20049;-70
2021/04/22 07:46:53;;;;;;;8.48;2.95;;;9.20;99.90;;;;;;4149454;28;20102;-70
2021/04/22 07:48:53;;;;;;;11.43;2.00;;;9.30;99.90;;;;;;4152381;28;20271;-70
2021/04/22 07:50:54;;;;;;;9.65;2.35;;;9.30;99.90;;;;;;4154297;28;20034;-70
2021/04/22 07:52:55;;;;;;;6.05;2.13;;;9.40;99.90;;;;;;4177992;28;20078;-70
2021/04/22 07:54:56;;;;;;;15.18;2.92;;;9.40;99.90;;;;;;4152006;28;20095;-70
2021/04/22 07:56:57;;;;;;;9.10;2.53;;;9.40;99.90;;;;;;4154726;28;20521;-70
2021/04/22 07:58:57;;;;;;;7.22;2.13;;;9.50;99.90;;;;;;4152896;28;20117;-70
2021/04/22 08:00:59;;;;;;;11.85;3.10;;;9.40;99.90;;;;;;4150381;28;20075;-70
2021/04/22 08:03:01;;;;;;;11.50;2.38;;;9.50;99.90;;;;;;4151628;28;20124;-70
2021/04/22 08:05:03;;;;;;;10.98;2.35;;;9.60;99.90;;;;;;4154344;28;20377;-70
2021/04/22 08:07:04;;;;;;;11.52;2.70;;;9.60;99.90;;;;;;4152343;28;20029;-70
2021/04/22 08:09:05;;;;;;;7.30;2.47;;;9.60;99.90;;;;;;4153657;28;20053;-70
2021/04/22 08:11:06;;;;;;;12.52;2.30;;;9.70;99.90;;;;;;4154164;28;20072;-70
2021/04/22 08:13:09;;;;;;;10.35;3.17;;;9.70;99.90;;;;;;4153464;28;20125;-70
2021/04/22 08:15:11;;;;;;;;;;;9.80;99.90;;;;;;4153122;28;20048;-70
2021/04/22 08:17:11;;;;;;;8.10;2.20;;;9.70;99.90;;;;;;4153266;28;19909;-70
2021/04/22 08:19:12;;;;;;;8.30;2.53;;;9.80;99.90;;;;;;4151873;28;20366;-70
2021/04/22 08:21:13;;;;;;;7.85;1.80;;;9.80;99.90;;;;;;4150370;28;20529;-70
2021/04/22 08:23:14;;;;;;;5.43;1.90;;;9.80;99.90;;;;;;4177943;28;20129;-70
2021/04/22 08:25:19;;;;;;;9.80;2.47;;;9.90;99.90;;;;;;4153418;28;20124;-69
2021/04/22 08:27:20;;;;;;;10.40;2.35;;;9.90;99.90;;;;;;4152972;28;20143;-70
2021/04/22 08:29:21;;;;;;;5.20;1.85;;;9.90;99.90;;;;;;4153119;28;20129;-70
2021/04/22 08:31:25;;;;;;;9.48;1.85;;;9.90;99.90;;;;;;4151916;28;20514;-70
2021/04/22 08:33:28;;;;;;;7.18;2.20;;;9.90;99.90;;;;;;4170192;28;20049;-70
2021/04/22 08:35:31;;;;;;;5.47;2.08;;;10.00;99.90;;;;;;4169852;28;20045;-70
2021/04/22 08:37:34;;;;;;;8.57;2.15;;;10.10;99.90;;;;;;4185173;28;20108;-70
2021/04/22 08:39:35;;;;;;;11.60;2.95;;;10.20;99.90;;;;;;4158534;28;20045;-70
2021/04/22 08:41:36;;;;;;;10.38;3.13;;;10.20;99.90;;;;;;4157149;28;20485;-70
2021/04/22 08:43:37;;;;;;;7.65;2.47;;;10.30;99.90;;;;;;4158184;28;20056;-70
2021/04/22 08:45:39;;;;;;;11.52;2.70;;;10.40;99.90;;;;;;4160560;28;20090;-70
2021/04/22 08:47:40;;;;;;;7.70;3.33;;;10.50;99.90;;;;;;4157578;28;20120;-70
2021/04/22 08:49:41;;;;;;;10.93;2.95;;;10.70;99.90;;;;;;4158219;28;20036;-69
2021/04/22 08:51:42;;;;;;;11.32;2.47;;;10.80;99.90;;;;;;4158903;28;20029;-69
2021/04/22 08:53:46;;;;;;;6.10;2.17;;;10.90;99.90;;;;;;4157941;28;20096;-70
2021/04/22 08:55:47;;;;;;;6.82;2.58;;;11.10;99.90;;;;;;4180411;28;20029;-70
2021/04/22 08:57:49;;;;;;;12.15;2.95;;;11.30;99.90;;;;;;4158472;28;20100;-70
2021/04/22 08:59:53;;;;;;;10.32;2.97;;;11.40;99.90;;;;;;4157508;28;20046;-70
2021/04/22 09:01:53;;;;;;;10.20;2.67;;;11.50;98.80;;;;;;4180637;28;20033;-70
2021/04/22 09:03:55;;;;;;;6.75;2.72;;;11.50;99.90;;;;;;4156849;28;20417;-70
2021/04/22 09:05:56;;;;;;;6.25;1.92;;;11.60;96.90;;;;;;4158762;28;20087;-70
2021/04/22 09:07:56;;;;;;;7.22;2.40;;;11.70;98.40;;;;;;4158316;28;20045;-70
2021/04/22 09:09:57;;;;;;;7.05;2.00;;;11.70;94.80;;;;;;4157011;28;20038;-70
2021/04/22 09:11:58;;;;;;;8.23;2.83;;;11.80;96.90;;;;;;4156954;28;20037;-70
2021/04/22 09:14:09;;;;;;;7.53;2.65;;;11.90;99.90;;;;;;4157509;28;20043;-70
2021/04/22 09:16:19;;;;;;;11.07;3.33;;;12.00;98.40;;;;;;4159646;28;20033;-70
2021/04/22 09:18:20;;;;;;;12.13;3.05;;;11.90;99.10;;;;;;4154590;28;20033;-70
2021/04/22 09:20:27;;;;;;;9.95;2.65;;;11.90;97.90;;;;;;4156749;28;20056;-70
2021/04/22 09:22:42;;;;;;;7.40;2.53;;;11.80;97.10;;;;;;4172338;28;20032;-70
2021/04/22 09:24:43;;;;;;;12.52;2.85;;;11.80;97.10;;;;;;4156274;28;20041;-70
2021/04/22 09:26:52;;;;;;;9.23;2.75;;;11.80;96.30;;;;;;4158661;28;20045;-70
2021/04/22 09:28:52;;;;;;;9.57;2.88;;;11.90;99.90;;;;;;4157414;28;20492;-70
2021/04/22 09:30:53;;;;;;;5.43;2.38;;;12.00;99.00;;;;;;4159331;28;20101;-70
2021/04/22 09:32:53;;;;;;;8.07;2.63;;;12.20;98.80;;;;;;4159876;28;20083;-70
2021/04/22 09:34:59;;;;;;;7.85;2.35;;;12.30;99.10;;;;;;4158982;28;20033;-70
2021/04/22 09:36:59;;;;;;;11.80;3.22;;;12.40;99.50;;;;;;4180891;28;20033;-70
2021/04/22 09:39:00;;;;;;;11.93;2.92;;;12.50;99.90;;;;;;4174946;28;20060;-70
2021/04/22 09:41:27;;;;;;;11.90;3.10;;;12.40;97.70;;;;;;4158247;28;20049;-70
2021/04/22 09:43:28;;;;;;;16.85;3.50;;;12.30;96.70;;;;;;4156191;28;20035;-70
2021/04/22 09:45:32;;;;;;;12.15;2.95;;;12.30;99.90;;;;;;4159566;28;20101;-70
2021/04/22 09:47:33;;;;;;;7.90;2.53;;;12.20;99.10;;;;;;4158789;28;20440;-69
2021/04/22 09:49:50;;;;;;;11.25;3.05;;;12.10;97.80;;;;;;4155255;28;20038;-70
2021/04/22 09:51:52;;;;;;;9.15;2.88;;;12.00;99.10;;;;;;4182630;28;20040;-70
2021/04/22 09:54:05;;;;;;;11.27;2.90;;;12.00;99.90;;;;;;4169861;28;20053;-70
2021/04/22 09:56:11;;;;;;;9.13;3.33;;;12.00;99.70;;;;;;4159326;28;20440;-70
2021/04/22 09:58:11;;;;;;;10.32;3.35;;;12.00;99.90;;;;;;4177650;28;20108;-69
2021/04/22 10:00:23;;;;;;;12.10;3.15;;;12.00;97.80;;;;;;4155453;28;20429;-69
2021/04/22 10:02:24;;;;;;;12.02;2.92;;;12.10;99.20;;;;;;4179019;28;20032;-70
2021/04/22 10:04:38;;;;;;;11.48;2.97;;;12.20;99.70;;;;;;4158513;28;20524;-70
2021/04/22 10:06:41;;;;;;;7.53;2.70;;;12.20;97.50;;;;;;4158399;28;20038;-70
2021/04/22 10:08:44;;;;;;;11.30;3.22;;;12.30;95.30;;;;;;4173478;28;20033;-69
2021/04/22 10:11:05;;;;;;;15.48;2.70;;;12.20;97.50;;;;;;4156291;28;20025;-69
2021/04/22 10:13:11;;;;;;;9.75;3.05;;;12.20;97.10;;;;;;4157514;28;20494;-69
2021/04/22 10:15:21;;;;;;;11.90;3.08;;;12.30;97.50;;;;;;4157944;28;20547;-69
2021/04/22 10:17:23;;;;;;;10.75;3.50;;;12.30;95.90;;;;;;4156702;28;20045;-69
2021/04/22 10:19:24;;;;;;;6.23;2.43;;;12.40;98.30;;;;;;4156866;28;20030;-69
2021/04/22 10:21:26;;;;;;;8.27;2.55;;;12.40;94.60;;;;;;4157982;28;20060;-69
2021/04/22 10:23:29;;;;;;;11.90;3.33;;;12.50;96.10;;;;;;4156214;28;20371;-69
2021/04/22 10:25:31;;;;;;;10.00;2.95;;;12.60;97.90;;;;;;4154523;28;20029;-69
2021/04/22 10:27:32;;;;;;;15.18;3.47;;;12.60;97.30;;;;;;4156902;28;20060;-69
2021/04/22 10:29:33;;;;;;;11.93;3.10;;;12.60;96.70;;;;;;4156960;28;20601;-69
2021/04/22 10:31:35;;;;;;;13.82;3.40;;;12.60;97.70;;;;;;4156381;28;20245;-69
2021/04/22 10:33:35;;;;;;;11.02;3.45;;;12.70;97.80;;;;;;4157063;28;20037;-69
2021/04/22 10:35:40;;;;;;;12.20;3.30;;;12.70;96.80;;;;;;4157537;28;20098;-69